Time;durP1;ratioP1;P1;durP2;ratioP2;P2;SDS_P1;SDS_P2;PMS_P1;PMS_P2;Temp;Humidity;BMP_temperature;BMP_pressure;BME280_temperature;BME280_humidity;BME280_pressure;Samples;Min_cycle;Max_cycle;Signal;HPM_P1;HPM_P2
2022/09/10 00:00:29;;;;;;;8.75;1.80;;;;;;;;;;4987966;28;20027;-80
2022/09/10 00:02:54;;;;;;;7.75;1.83;;;;;;;;;;4987881;28;20018;-82
2022/09/10 00:05:20;;;;;;;6.70;1.88;;;;;;;;;;4987741;28;20066;-80
2022/09/10 00:07:46;;;;;;;10.15;1.92;;;;;;;;;;4987729;28;20023;-80
2022/09/10 00:10:11;;;;;;;6.15;1.90;;;;;;;;;;4987687;28;20078;-80
2022/09/10 00:12:38;;;;;;;5.57;1.80;;;;;;;;;;4970366;28;20263;-80
2022/09/10 00:15:04;;;;;;;6.68;1.67;;;;;;;;;;4970417;28;20026;-82
2022/09/10 00:17:31;;;;;;;5.57;1.90;;;;;;;;;;4970267;28;20319;-81
2022/09/10 00:19:58;;;;;;;6.10;1.80;;;;;;;;;;4970381;28;20106;-81
2022/09/10 00:22:24;;;;;;;6.68;1.80;;;;;;;;;;4987582;28;20025;-80
2022/09/10 00:24:54;;;;;;;3.80;1.67;;;;;;;;;;4970245;28;20058;-81
2022/09/10 00:27:19;;;;;;;7.63;2.20;;;;;;;;;;4987437;28;20095;-82
2022/09/10 00:29:45;;;;;;;8.40;1.83;;;;;;;;;;4987408;28;20018;-80
2022/09/10 00:32:10;;;;;;;6.82;1.90;;;;;;;;;;4987333;28;20192;-80
2022/09/10 00:34:35;;;;;;;8.32;2.00;;;;;;;;;;4987320;28;20255;-81
2022/09/10 00:37:01;;;;;;;6.95;1.80;;;;;;;;;;4987124;28;20027;-80
2022/09/10 00:39:26;;;;;;;7.25;2.10;;;;;;;;;;4966536;28;20046;-79
2022/09/10 00:41:53;;;;;;;7.30;1.80;;;;;;;;;;4967496;28;20042;-81
2022/09/10 00:44:45;;;;;;;6.57;2.05;;;;;;;;;;4966753;29;20367;-82
2022/09/10 00:47:16;;;;;;;6.35;1.90;;;;;;;;;;4952587;28;20042;-81
2022/09/10 00:49:51;;;;;;;9.77;2.15;;;;;;;;;;4967793;28;20054;-84
2022/09/10 00:52:17;;;;;;;9.30;2.15;;;;;;;;;;4967614;28;20062;-88
2022/09/10 00:54:44;;;;;;;7.47;2.00;;;;;;;;;;4966447;28;20046;-82
2022/09/10 00:57:15;;;;;;;11.90;2.25;;;;;;;;;;4967529;28;20020;-82
2022/09/10 00:59:46;;;;;;;5.15;1.73;;;;;;;;;;4967582;28;20319;-82
2022/09/10 01:02:11;;;;;;;7.47;1.98;;;;;;;;;;4967313;28;20019;-83
2022/09/10 01:04:38;;;;;;;9.18;2.00;;;;;;;;;;4966086;29;20031;-80
2022/09/10 01:07:06;;;;;;;6.70;1.80;;;;;;;;;;4965961;29;20024;-81
2022/09/10 01:09:32;;;;;;;8.27;2.00;;;;;;;;;;4967353;28;20093;-84
2022/09/10 01:12:07;;;;;;;6.70;2.03;;;;;;;;;;4967293;28;20323;-85
2022/09/10 01:14:42;;;;;;;8.73;2.22;;;;;;;;;;4967251;28;20070;-84
2022/09/10 01:17:29;;;;;;;5.00;1.90;;;;;;;;;;4967253;28;20034;-83
2022/09/10 01:20:16;;;;;;;6.95;1.90;;;;;;;;;;4967135;29;20023;-84
2022/09/10 01:23:10;;;;;;;10.50;2.30;;;;;;;;;;4967111;28;20034;-83
2022/09/10 01:26:02;;;;;;;7.85;1.77;;;;;;;;;;4967002;28;20033;-84
2022/09/10 01:28:50;;;;;;;10.95;1.95;;;;;;;;;;4966930;29;20027;-86
2022/09/10 01:31:30;;;;;;;10.30;2.15;;;;;;;;;;4965786;29;20019;-87
2022/09/10 01:34:15;;;;;;;6.68;2.00;;;;;;;;;;4966841;28;20315;-81
2022/09/10 01:36:42;;;;;;;;;;;;;;;;;;4967333;28;20028;-86
2022/09/10 01:39:07;;;;;;;7.75;1.85;;;;;;;;;;4981565;28;19953;-86
2022/09/10 01:41:33;;;;;;;8.00;1.95;;;;;;;;;;4966677;28;20023;-83
2022/09/10 01:44:07;;;;;;;9.25;2.13;;;;;;;;;;4966598;28;20200;-82
2022/09/10 01:46:43;;;;;;;7.03;2.08;;;;;;;;;;4965478;29;20027;-83
2022/09/10 01:49:30;;;;;;;9.13;2.17;;;;;;;;;;4966571;28;20023;-81
2022/09/10 01:52:12;;;;;;;6.80;2.05;;;;;;;;;;4966488;29;20023;-82
2022/09/10 01:55:10;;;;;;;6.82;2.10;;;;;;;;;;4965709;28;20036;-80
2022/09/10 01:58:06;;;;;;;9.85;2.00;;;;;;;;;;4949892;28;20058;-86
2022/09/10 02:00:34;;;;;;;8.63;2.08;;;;;;;;;;4966449;29;20023;-82
2022/09/10 02:03:04;;;;;;;8.90;1.98;;;;;;;;;;4966411;28;20019;-81
2022/09/10 02:05:34;;;;;;;10.32;2.20;;;;;;;;;;4966144;28;20030;-81
2022/09/10 02:08:02;;;;;;;6.20;2.05;;;;;;;;;;4966334;28;20023;-81
2022/09/10 02:10:28;;;;;;;10.88;2.10;;;;;;;;;;4966187;28;20019;-81
2022/09/10 02:12:54;;;;;;;11.32;2.15;;;;;;;;;;4966177;28;20088;-80
2022/09/10 02:15:21;;;;;;;6.55;2.13;;;;;;;;;;4966155;28;20366;-80
2022/09/10 02:17:48;;;;;;;7.85;1.90;;;;;;;;;;4966074;28;20019;-80
2022/09/10 02:20:14;;;;;;;7.50;2.30;;;;;;;;;;4964770;29;20027;-81
2022/09/10 02:22:54;;;;;;;7.07;2.30;;;;;;;;;;4966092;28;20027;-81
2022/09/10 02:25:20;;;;;;;9.10;2.10;;;;;;;;;;4964848;29;20063;-81
2022/09/10 02:27:46;;;;;;;7.32;2.20;;;;;;;;;;4964770;29;20023;-80
2022/09/10 02:30:12;;;;;;;10.95;2.20;;;;;;;;;;4965905;28;20248;-81
2022/09/10 02:32:37;;;;;;;9.18;2.35;;;;;;;;;;4964723;29;20027;-81
2022/09/10 02:35:03;;;;;;;12.18;2.60;;;;;;;;;;4964676;29;20282;-81
2022/09/10 02:37:28;;;;;;;6.57;1.90;;;;;;;;;;4965084;29;20034;-81
2022/09/10 02:39:54;;;;;;;9.65;2.28;;;;;;;;;;4975115;28;20346;-82
2022/09/10 02:42:19;;;;;;;9.45;1.95;;;;;;;;;;4967762;28;20034;-82
2022/09/10 02:44:45;;;;;;;9.52;2.20;;;;;;;;;;4984985;28;20232;-84
2022/09/10 02:47:11;;;;;;;11.93;2.22;;;;;;;;;;4985000;28;20334;-83
2022/09/10 02:49:36;;;;;;;9.40;2.08;;;;;;;;;;4985034;28;20030;-81
2022/09/10 02:52:03;;;;;;;10.35;2.13;;;;;;;;;;4984974;28;20038;-82
2022/09/10 02:54:29;;;;;;;9.52;2.03;;;;;;;;;;4984915;28;20027;-81
2022/09/10 02:56:55;;;;;;;12.85;2.10;;;;;;;;;;4985023;28;20034;-86
2022/09/10 02:59:21;;;;;;;13.73;2.40;;;;;;;;;;4984942;28;20027;-81
2022/09/10 03:01:47;;;;;;;9.98;2.10;;;;;;;;;;4985010;28;20054;-84
2022/09/10 03:04:14;;;;;;;6.28;1.90;;;;;;;;;;4984799;28;20031;-87
2022/09/10 03:06:39;;;;;;;10.15;2.03;;;;;;;;;;4984770;28;20095;-83
2022/09/10 03:09:05;;;;;;;11.60;2.17;;;;;;;;;;4984699;28;20026;-85
2022/09/10 03:11:30;;;;;;;10.68;2.05;;;;;;;;;;4968079;28;20215;-84
2022/09/10 03:13:59;;;;;;;9.18;2.00;;;;;;;;;;4984792;28;20030;-83
2022/09/10 03:16:24;;;;;;;8.95;1.98;;;;;;;;;;4967756;28;20030;-82
2022/09/10 03:18:50;;;;;;;9.13;2.05;;;;;;;;;;4971015;28;20135;-82
2022/09/10 03:21:21;;;;;;;7.68;2.00;;;;;;;;;;4988583;28;20211;-87
2022/09/10 03:23:49;;;;;;;10.35;2.30;;;;;;;;;;4988443;28;20023;-82
2022/09/10 03:26:16;;;;;;;7.20;1.98;;;;;;;;;;4988619;28;20061;-83
2022/09/10 03:28:42;;;;;;;13.40;2.33;;;;;;;;;;4988357;28;20222;-83
2022/09/10 03:31:08;;;;;;;12.40;2.53;;;;;;;;;;4988444;28;20019;-82
2022/09/10 03:33:34;;;;;;;10.68;2.60;;;;;;;;;;4988663;28;20057;-82
2022/09/10 03:36:01;;;;;;;11.07;2.25;;;;;;;;;;4971919;28;20033;-84
2022/09/10 03:38:27;;;;;;;10.20;1.95;;;;;;;;;;4988262;28;20315;-83
2022/09/10 03:40:53;;;;;;;12.23;2.03;;;;;;;;;;4988159;28;20066;-85
2022/09/10 03:43:21;;;;;;;12.63;2.10;;;;;;;;;;4970862;28;20382;-86
2022/09/10 03:45:50;;;;;;;11.23;2.15;;;;;;;;;;4970811;28;20058;-86
2022/09/10 03:48:17;;;;;;;9.73;1.83;;;;;;;;;;4988131;28;20057;-85
2022/09/10 03:50:44;;;;;;;10.40;2.20;;;;;;;;;;4988195;28;20438;-86
2022/09/10 03:53:13;;;;;;;7.88;2.00;;;;;;;;;;4970870;28;20097;-85
2022/09/10 03:55:41;;;;;;;9.82;2.30;;;;;;;;;;4971012;28;20065;-84
2022/09/10 03:58:06;;;;;;;7.30;2.10;;;;;;;;;;4988009;28;20318;-82
2022/09/10 04:00:32;;;;;;;9.82;2.28;;;;;;;;;;4971249;28;20041;-85
2022/09/10 04:02:59;;;;;;;10.80;2.10;;;;;;;;;;4987972;28;20089;-83
2022/09/10 04:05:26;;;;;;;12.13;2.40;;;;;;;;;;4987892;28;20053;-83
2022/09/10 04:07:53;;;;;;;10.80;2.25;;;;;;;;;;4987916;28;20134;-86
2022/09/10 04:10:19;;;;;;;8.32;2.22;;;;;;;;;;4987908;28;20192;-82
2022/09/10 04:12:44;;;;;;;11.45;2.30;;;;;;;;;;4987974;28;20023;-86
2022/09/10 04:15:10;;;;;;;6.18;2.25;;;;;;;;;;4987755;28;20030;-83
2022/09/10 04:17:36;;;;;;;11.82;2.40;;;;;;;;;;4987652;28;20081;-82
2022/09/10 04:20:02;;;;;;;10.73;2.10;;;;;;;;;;4987750;28;20026;-85
2022/09/10 04:22:27;;;;;;;9.68;2.20;;;;;;;;;;4987567;28;20046;-81
2022/09/10 04:24:52;;;;;;;9.02;2.50;;;;;;;;;;4987551;28;20109;-87
2022/09/10 04:27:18;;;;;;;12.50;2.42;;;;;;;;;;4987461;28;20018;-88
2022/09/10 04:29:43;;;;;;;10.40;2.13;;;;;;;;;;4987078;28;20239;-87
2022/09/10 04:32:09;;;;;;;11.43;2.30;;;;;;;;;;4987356;28;20023;-85
2022/09/10 04:34:35;;;;;;;8.02;2.05;;;;;;;;;;4987258;28;20300;-82
2022/09/10 04:37:00;;;;;;;8.80;2.15;;;;;;;;;;4987335;28;20027;-83
2022/09/10 04:39:26;;;;;;;9.70;2.05;;;;;;;;;;4969554;28;20409;-82
2022/09/10 04:41:51;;;;;;;10.20;2.15;;;;;;;;;;4987222;28;20319;-83
2022/09/10 04:44:19;;;;;;;6.63;1.90;;;;;;;;;;4970014;28;20039;-85
2022/09/10 04:46:44;;;;;;;7.93;2.33;;;;;;;;;;4987044;28;20338;-82
2022/09/10 04:49:10;;;;;;;11.23;2.38;;;;;;;;;;4987184;28;20022;-81
2022/09/10 04:51:35;;;;;;;9.35;2.30;;;;;;;;;;4986890;28;20034;-84
2022/09/10 04:54:01;;;;;;;7.22;2.33;;;;;;;;;;4987217;28;20133;-84
2022/09/10 04:56:27;;;;;;;13.93;2.47;;;;;;;;;;4986933;28;20030;-88
2022/09/10 04:58:53;;;;;;;10.07;2.50;;;;;;;;;;4986831;28;20027;-82
2022/09/10 05:01:18;;;;;;;9.10;2.00;;;;;;;;;;4986945;28;20119;-86
2022/09/10 05:03:43;;;;;;;9.07;2.10;;;;;;;;;;4969431;28;20022;-83
2022/09/10 05:06:09;;;;;;;11.68;2.35;;;;;;;;;;4986776;28;20018;-82
2022/09/10 05:08:35;;;;;;;9.30;2.00;;;;;;;;;;4969356;28;20098;-86
2022/09/10 05:11:01;;;;;;;7.93;2.13;;;;;;;;;;4986614;28;20022;-86
2022/09/10 05:13:30;;;;;;;8.32;2.05;;;;;;;;;;4969324;28;20019;-82
2022/09/10 05:15:57;;;;;;;6.68;2.05;;;;;;;;;;4969362;28;20258;-86
2022/09/10 05:18:24;;;;;;;10.05;2.28;;;;;;;;;;4986535;28;20046;-84
2022/09/10 05:20:49;;;;;;;8.63;2.35;;;;;;;;;;4986467;28;20022;-83
2022/09/10 05:23:14;;;;;;;7.63;1.85;;;;;;;;;;4986370;28;20078;-84
2022/09/10 05:25:47;;;;;;;10.75;2.20;;;;;;;;;;4986324;28;20218;-89
2022/09/10 05:28:14;;;;;;;9.48;2.42;;;;;;;;;;4986619;28;20029;-84
2022/09/10 05:30:40;;;;;;;10.50;2.38;;;;;;;;;;4986312;28;20022;-87
2022/09/10 05:33:05;;;;;;;5.32;2.10;;;;;;;;;;4969034;28;20110;-84
2022/09/10 05:35:32;;;;;;;5.88;2.10;;;;;;;;;;4968873;28;20330;-82
2022/09/10 05:37:59;;;;;;;10.35;2.20;;;;;;;;;;4986175;28;20070;-88
2022/09/10 05:40:25;;;;;;;8.43;1.90;;;;;;;;;;4967810;28;20035;-85
2022/09/10 05:42:52;;;;;;;13.85;2.38;;;;;;;;;;4986115;28;20029;-83
2022/09/10 05:45:19;;;;;;;10.00;2.08;;;;;;;;;;4985927;28;20054;-83
2022/09/10 05:47:45;;;;;;;9.15;2.00;;;;;;;;;;4985941;28;20018;-82
2022/09/10 05:50:10;;;;;;;8.43;2.22;;;;;;;;;;4968527;28;20121;-83
2022/09/10 05:52:36;;;;;;;14.43;2.40;;;;;;;;;;4985750;28;20030;-83
2022/09/10 05:55:02;;;;;;;9.18;2.45;;;;;;;;;;4985856;28;20023;-84
2022/09/10 05:57:27;;;;;;;9.35;2.40;;;;;;;;;;4985688;28;20030;-84
2022/09/10 05:59:52;;;;;;;10.05;2.22;;;;;;;;;;4985749;28;20027;-85
2022/09/10 06:02:18;;;;;;;7.10;2.05;;;;;;;;;;4985976;28;20318;-83
2022/09/10 06:04:44;;;;;;;10.75;2.20;;;;;;;;;;4968361;28;20033;-83
2022/09/10 06:07:10;;;;;;;8.43;2.30;;;;;;;;;;4985575;28;20054;-83
2022/09/10 06:09:35;;;;;;;8.82;2.22;;;;;;;;;;4985705;28;20027;-83
2022/09/10 06:12:01;;;;;;;8.43;2.38;;;;;;;;;;4985540;28;20034;-83
2022/09/10 06:14:26;;;;;;;8.18;2.30;;;;;;;;;;4985490;28;20026;-84
2022/09/10 06:16:53;;;;;;;10.32;2.28;;;;;;;;;;4985430;28;20018;-83
2022/09/10 06:19:19;;;;;;;7.60;2.42;;;;;;;;;;4985348;28;20023;-84
2022/09/10 06:21:45;;;;;;;9.20;2.35;;;;;;;;;;4985503;28;20045;-82
2022/09/10 06:24:11;;;;;;;9.27;2.30;;;;;;;;;;4985340;28;20019;-81
2022/09/10 06:26:37;;;;;;;7.90;2.15;;;;;;;;;;4985272;28;20023;-81
2022/09/10 06:29:02;;;;;;;8.75;1.90;;;;;;;;;;4985382;28;20337;-81
2022/09/10 06:31:28;;;;;;;7.57;2.20;;;;;;;;;;4985259;28;20019;-86
2022/09/10 06:33:53;;;;;;;9.63;2.05;;;;;;;;;;4985213;28;20023;-87
2022/09/10 06:36:19;;;;;;;8.90;2.08;;;;;;;;;;4985136;28;20029;-77
2022/09/10 06:38:44;;;;;;;9.43;2.13;;;;;;;;;;4984063;28;20183;-79
2022/09/10 06:41:12;;;;;;;11.77;2.30;;;;;;;;;;4985027;28;20075;-79
2022/09/10 06:43:40;;;;;;;10.32;2.17;;;;;;;;;;4984860;28;20022;-78
2022/09/10 06:46:13;;;;;;;9.55;2.60;;;;;;;;;;4984890;28;20093;-79
2022/09/10 06:48:40;;;;;;;10.77;2.05;;;;;;;;;;4984819;28;20027;-78
2022/09/10 06:51:07;;;;;;;13.98;2.30;;;;;;;;;;4984745;28;20049;-77
2022/09/10 06:53:33;;;;;;;10.05;2.13;;;;;;;;;;4984847;28;20044;-78
2022/09/10 06:56:00;;;;;;;15.60;2.30;;;;;;;;;;4984781;28;20031;-78
2022/09/10 06:58:26;;;;;;;15.63;3.17;;;;;;;;;;4967823;28;20111;-79
2022/09/10 07:00:54;;;;;;;8.57;2.10;;;;;;;;;;4967550;28;20073;-78
2022/09/10 07:03:21;;;;;;;7.82;2.20;;;;;;;;;;4967957;28;20193;-78
2022/09/10 07:05:47;;;;;;;7.55;2.30;;;;;;;;;;4984681;28;20031;-78
2022/09/10 07:08:16;;;;;;;10.82;2.40;;;;;;;;;;4984558;28;20023;-78
2022/09/10 07:10:43;;;;;;;8.80;2.30;;;;;;;;;;4967395;28;20027;-78
2022/09/10 07:13:09;;;;;;;7.63;2.00;;;;;;;;;;4984632;28;20038;-77
2022/09/10 07:15:35;;;;;;;6.57;1.83;;;;;;;;;;4984731;28;20027;-77
2022/09/10 07:18:01;;;;;;;7.65;2.03;;;;;;;;;;4984449;28;20023;-78
2022/09/10 07:20:28;;;;;;;5.63;2.00;;;;;;;;;;4984548;28;20034;-79
2022/09/10 07:22:58;;;;;;;10.35;2.13;;;;;;;;;;4984415;28;20023;-78
2022/09/10 07:25:25;;;;;;;8.10;2.15;;;;;;;;;;4984319;28;20050;-78
2022/09/10 07:27:51;;;;;;;6.95;1.92;;;;;;;;;;4967269;28;20034;-77
2022/09/10 07:30:17;;;;;;;9.05;2.10;;;;;;;;;;4984489;28;20274;-78
2022/09/10 07:32:42;;;;;;;6.07;2.00;;;;;;;;;;4984527;28;20258;-78
2022/09/10 07:35:08;;;;;;;8.80;2.25;;;;;;;;;;4967205;28;20023;-78
2022/09/10 07:37:34;;;;;;;7.95;1.92;;;;;;;;;;4984777;28;20335;-78
2022/09/10 07:40:00;;;;;;;6.50;2.03;;;;;;;;;;4984270;28;20046;-79
2022/09/10 07:42:25;;;;;;;7.55;1.75;;;;;;;;;;4984437;28;20032;-81
2022/09/10 07:44:51;;;;;;;10.98;2.03;;;;;;;;;;4983890;28;20069;-80
2022/09/10 07:47:16;;;;;;;11.10;2.17;;;;;;;;;;4984415;28;20026;-80
2022/09/10 07:49:43;;;;;;;8.43;2.13;;;;;;;;;;4984175;28;20018;-78
2022/09/10 07:52:09;;;;;;;8.63;1.80;;;;;;;;;;4984339;28;20030;-80
2022/09/10 07:54:34;;;;;;;9.32;2.00;;;;;;;;;;4984316;28;20034;-78
2022/09/10 07:57:00;;;;;;;10.02;2.00;;;;;;;;;;4984139;28;20018;-78
2022/09/10 07:59:25;;;;;;;6.78;2.05;;;;;;;;;;4984194;28;20267;-78
2022/09/10 08:01:51;;;;;;;6.63;1.90;;;;;;;;;;4984263;28;20018;-79
2022/09/10 08:04:16;;;;;;;9.00;1.88;;;;;;;;;;4986703;28;20027;-80
2022/09/10 08:06:42;;;;;;;8.50;1.90;;;;;;;;;;4987731;28;20030;-79
2022/09/10 08:09:07;;;;;;;7.25;1.95;;;;;;;;;;4987744;28;20015;-79
2022/09/10 08:11:33;;;;;;;5.10;1.60;;;;;;;;;;4987563;28;20023;-78
2022/09/10 08:13:59;;;;;;;7.45;1.88;;;;;;;;;;4987769;28;20062;-78
2022/09/10 08:16:26;;;;;;;6.90;1.90;;;;;;;;;;4987456;28;20026;-78
2022/09/10 08:18:56;;;;;;;8.27;2.08;;;;;;;;;;4987319;28;20023;-79
2022/09/10 08:21:23;;;;;;;6.13;1.90;;;;;;;;;;4987352;28;20018;-76
2022/09/10 08:23:50;;;;;;;5.85;1.70;;;;;;;;;;4987350;28;20031;-78
2022/09/10 08:26:16;;;;;;;6.85;1.83;;;;;;;;;;4970091;28;20098;-81
2022/09/10 08:28:43;;;;;;;10.02;2.30;;;;;;;;;;4987229;28;20231;-79
2022/09/10 08:31:10;;;;;;;9.45;2.00;;;;;;;;;;4987134;28;20319;-80
2022/09/10 08:33:39;;;;;;;7.78;2.17;;;;;;;;;;4987224;28;20046;-77
2022/09/10 08:36:10;;;;;;;5.30;1.63;;;;;;;;;;4987108;28;20246;-80
2022/09/10 08:38:38;;;;;;;6.35;2.15;;;;;;;;;;4969804;28;20027;-80
2022/09/10 08:41:12;;;;;;;8.70;2.00;;;;;;;;;;4986761;28;20070;-80
2022/09/10 08:43:50;;;;;;;7.07;2.22;;;;;;;;;;4969772;28;20246;-79
2022/09/10 08:46:28;;;;;;;8.27;1.90;;;;;;;;;;4986972;28;20018;-78
2022/09/10 08:49:20;;;;;;;5.43;1.83;;;;;;;;;;4986952;28;20033;-76
2022/09/10 08:52:03;;;;;;;6.90;1.90;;;;;;;;;;4986755;28;20390;-76
2022/09/10 08:54:58;;;;;;;10.77;2.00;;;;;;;;;;4986686;28;20043;-76
2022/09/10 08:57:45;;;;;;;5.65;1.70;;;;;;;;;;4963907;28;20227;-77
2022/09/10 09:00:16;;;;;;;5.88;2.20;;;;;;;;;;4986662;28;20042;-78
2022/09/10 09:03:06;;;;;;;6.63;2.10;;;;;;;;;;4986605;28;20026;-77
2022/09/10 09:05:46;;;;;;;7.32;1.77;;;;;;;;;;4986212;28;20218;-76
2022/09/10 09:08:17;;;;;;;8.35;1.77;;;;;;;;;;4986389;28;20251;-77
2022/09/10 09:10:49;;;;;;;8.35;1.70;;;;;;;;;;4969043;28;20042;-75
2022/09/10 09:13:27;;;;;;;4.07;1.90;;;;;;;;;;4986385;28;20022;-75
2022/09/10 09:15:52;;;;;;;6.10;1.80;;;;;;;;;;4985276;28;20022;-77
2022/09/10 09:18:51;;;;;;;4.75;1.80;;;;;;;;;;4986390;28;20049;-80
2022/09/10 09:21:23;;;;;;;5.30;1.77;;;;;;;;;;4986216;28;20027;-76
2022/09/10 09:23:54;;;;;;;5.70;1.70;;;;;;;;;;4986087;28;20028;-78
2022/09/10 09:26:28;;;;;;;5.30;1.70;;;;;;;;;;4986214;28;20031;-80
2022/09/10 09:29:04;;;;;;;6.80;1.65;;;;;;;;;;4986261;28;20169;-80
2022/09/10 09:31:37;;;;;;;8.25;2.05;;;;;;;;;;4986228;28;20022;-81
2022/09/10 09:34:09;;;;;;;5.68;1.60;;;;;;;;;;4986111;28;20054;-83
2022/09/10 09:36:42;;;;;;;5.32;1.70;;;;;;;;;;4986036;28;20069;-78
2022/09/10 09:39:34;;;;;;;6.25;1.75;;;;;;;;;;4985778;28;20050;-77
2022/09/10 09:42:06;;;;;;;6.05;1.63;;;;;;;;;;4985867;28;20054;-78
2022/09/10 09:44:48;;;;;;;5.10;1.60;;;;;;;;;;4985965;28;20057;-78
2022/09/10 09:47:14;;;;;;;6.40;2.00;;;;;;;;;;4968472;28;20022;-82
2022/09/10 09:49:40;;;;;;;6.18;1.80;;;;;;;;;;4985753;28;20191;-78
2022/09/10 09:52:22;;;;;;;6.47;1.98;;;;;;;;;;4985573;28;20097;-77
2022/09/10 09:54:52;;;;;;;9.23;1.88;;;;;;;;;;4985680;28;20081;-79
2022/09/10 09:57:19;;;;;;;5.43;1.73;;;;;;;;;;4985920;28;20337;-78
2022/09/10 09:59:47;;;;;;;4.05;1.70;;;;;;;;;;4985555;28;20246;-75
2022/09/10 10:02:16;;;;;;;6.57;2.00;;;;;;;;;;4985506;28;20022;-78
2022/09/10 10:05:02;;;;;;;4.15;1.70;;;;;;;;;;4985489;28;20030;-76
2022/09/10 10:07:33;;;;;;;7.18;1.95;;;;;;;;;;4968223;28;20057;-76
2022/09/10 10:10:00;;;;;;;6.55;1.92;;;;;;;;;;4985456;28;20073;-75
2022/09/10 10:12:30;;;;;;;8.65;2.10;;;;;;;;;;4985321;28;20023;-75
2022/09/10 10:14:56;;;;;;;7.18;2.25;;;;;;;;;;4985357;28;20022;-76
2022/09/10 10:17:33;;;;;;;5.70;2.00;;;;;;;;;;4985217;28;20066;-78
2022/09/10 10:20:07;;;;;;;6.32;2.10;;;;;;;;;;4985405;28;20022;-76
2022/09/10 10:22:34;;;;;;;4.40;1.90;;;;;;;;;;4985333;28;20211;-74
2022/09/10 10:25:00;;;;;;;5.63;2.10;;;;;;;;;;4984981;28;20034;-77
2022/09/10 10:27:34;;;;;;;6.38;2.60;;;;;;;;;;4984868;28;20312;-76
2022/09/10 10:30:04;;;;;;;6.72;2.20;;;;;;;;;;4985212;28;20024;-78
2022/09/10 10:32:49;;;;;;;8.32;2.80;;;;;;;;;;4985300;28;20030;-76
2022/09/10 10:35:28;;;;;;;6.77;2.50;;;;;;;;;;4984911;28;20070;-77
2022/09/10 10:38:02;;;;;;;7.00;2.50;;;;;;;;;;4984914;28;20089;-77
2022/09/10 10:40:35;;;;;;;5.22;2.70;;;;;;;;;;4984883;28;20101;-78
2022/09/10 10:43:28;;;;;;;8.95;3.40;;;;;;;;;;4985011;28;20085;-78
2022/09/10 10:46:10;;;;;;;9.15;3.38;;;;;;;;;;4984845;28;20031;-77
2022/09/10 10:48:54;;;;;;;9.90;3.20;;;;;;;;;;4984832;28;20023;-78
2022/09/10 10:51:30;;;;;;;7.10;2.97;;;;;;;;;;4984805;28;20026;-78
2022/09/10 10:54:14;;;;;;;6.25;2.63;;;;;;;;;;4984641;28;20026;-78
2022/09/10 10:56:46;;;;;;;5.45;2.70;;;;;;;;;;4984862;28;20023;-78
2022/09/10 10:59:26;;;;;;;5.35;2.92;;;;;;;;;;4984777;28;20019;-77
2022/09/10 11:02:12;;;;;;;5.50;2.60;;;;;;;;;;4967342;28;20272;-78
2022/09/10 11:04:49;;;;;;;8.45;2.80;;;;;;;;;;4984617;28;20082;-78
2022/09/10 11:07:35;;;;;;;6.57;2.78;;;;;;;;;;4984683;28;20116;-79
2022/09/10 11:10:18;;;;;;;5.63;2.67;;;;;;;;;;4984630;28;20026;-78
2022/09/10 11:12:59;;;;;;;5.28;2.80;;;;;;;;;;4967289;28;20270;-78
2022/09/10 11:15:36;;;;;;;6.45;2.75;;;;;;;;;;4984724;28;20025;-78
2022/09/10 11:18:17;;;;;;;6.20;2.80;;;;;;;;;;4984602;28;20078;-78
2022/09/10 11:21:03;;;;;;;10.52;2.60;;;;;;;;;;4984649;28;20027;-77
2022/09/10 11:23:38;;;;;;;7.47;2.88;;;;;;;;;;4984579;28;20038;-78
2022/09/10 11:26:14;;;;;;;6.85;2.70;;;;;;;;;;4984797;28;20098;-78
2022/09/10 11:29:03;;;;;;;7.50;2.78;;;;;;;;;;4984445;28;20234;-78
2022/09/10 11:31:34;;;;;;;6.55;2.80;;;;;;;;;;4984640;28;20022;-77
2022/09/10 11:34:08;;;;;;;7.22;2.90;;;;;;;;;;4984452;28;20126;-78
2022/09/10 11:36:48;;;;;;;8.20;3.30;;;;;;;;;;4984490;28;20333;-77
2022/09/10 11:39:32;;;;;;;6.68;2.92;;;;;;;;;;4969450;28;20047;-78
2022/09/10 11:41:59;;;;;;;7.38;3.00;;;;;;;;;;4988144;28;20273;-78
2022/09/10 11:44:50;;;;;;;6.22;2.75;;;;;;;;;;4987946;28;20217;-77
2022/09/10 11:47:23;;;;;;;6.90;3.15;;;;;;;;;;4987968;28;20088;-78
2022/09/10 11:50:21;;;;;;;7.40;2.80;;;;;;;;;;4988000;28;20018;-78
2022/09/10 11:52:46;;;;;;;7.95;3.00;;;;;;;;;;4988283;28;20094;-78
2022/09/10 11:55:16;;;;;;;6.68;3.10;;;;;;;;;;4987880;28;20210;-78
2022/09/10 11:57:53;;;;;;;7.65;3.10;;;;;;;;;;4987825;28;20025;-78
2022/09/10 12:00:19;;;;;;;9.00;2.50;;;;;;;;;;4987806;28;20061;-79
2022/09/10 12:03:03;;;;;;;7.05;2.60;;;;;;;;;;4987770;28;20019;-79
2022/09/10 12:05:55;;;;;;;7.45;2.40;;;;;;;;;;4987676;28;20291;-78
2022/09/10 12:08:35;;;;;;;6.07;2.05;;;;;;;;;;4987723;28;20041;-79
2022/09/10 12:11:20;;;;;;;5.53;2.30;;;;;;;;;;4987690;28;20031;-79
2022/09/10 12:13:48;;;;;;;6.05;2.10;;;;;;;;;;4987712;28;20322;-79
2022/09/10 12:16:33;;;;;;;7.88;1.98;;;;;;;;;;4987463;28;20029;-79
2022/09/10 12:19:01;;;;;;;3.47;1.73;;;;;;;;;;4987494;28;20403;-78
2022/09/10 12:21:41;;;;;;;7.10;2.17;;;;;;;;;;4987299;28;20054;-78
2022/09/10 12:24:32;;;;;;;4.72;1.90;;;;;;;;;;4987279;28;20027;-78
2022/09/10 12:27:00;;;;;;;5.95;1.90;;;;;;;;;;4987446;28;20019;-79
2022/09/10 12:29:40;;;;;;;5.78;1.77;;;;;;;;;;4987011;28;20034;-78
2022/09/10 12:32:18;;;;;;;5.72;2.15;;;;;;;;;;4987019;28;20018;-78
2022/09/10 12:34:47;;;;;;;4.93;1.77;;;;;;;;;;4987103;28;20019;-80
2022/09/10 12:37:25;;;;;;;3.80;2.10;;;;;;;;;;4986937;28;20019;-78
2022/09/10 12:40:25;;;;;;;5.82;2.20;;;;;;;;;;4986818;28;20058;-79
2022/09/10 12:42:57;;;;;;;2.83;1.70;;;;;;;;;;4912038;29;20035;-81
2022/09/10 12:46:00;;;;;;;4.88;1.73;;;;;;;;;;4977305;28;20081;-79
2022/09/10 12:48:26;;;;;;;3.95;1.40;;;;;;;;;;4986879;28;20027;-78
2022/09/10 12:50:56;;;;;;;3.88;1.40;;;;;;;;;;4986757;28;20052;-79
2022/09/10 12:53:43;;;;;;;5.45;1.95;;;;;;;;;;4986943;28;20026;-79
2022/09/10 12:56:23;;;;;;;3.67;1.77;;;;;;;;;;4986742;28;20027;-80
2022/09/10 12:59:06;;;;;;;2.13;1.40;;;;;;;;;;4986811;28;20099;-78
2022/09/10 13:01:41;;;;;;;3.25;1.10;;;;;;;;;;4986784;28;20062;-79
2022/09/10 13:04:18;;;;;;;;;;;;;;;;;;4970096;28;20251;-79
2022/09/10 13:06:46;;;;;;;3.13;1.20;;;;;;;;;;4986430;28;20158;-79
2022/09/10 13:09:19;;;;;;;2.78;1.10;;;;;;;;;;4986593;28;20019;-79
2022/09/10 13:11:49;;;;;;;1.92;1.00;;;;;;;;;;4986646;28;20023;-79
2022/09/10 13:14:25;;;;;;;2.63;1.10;;;;;;;;;;4986521;28;20033;-80
2022/09/10 13:16:50;;;;;;;2.97;1.00;;;;;;;;;;4986355;28;20065;-79
2022/09/10 13:19:18;;;;;;;2.40;1.10;;;;;;;;;;4986529;28;20086;-79
2022/09/10 13:21:43;;;;;;;3.00;1.00;;;;;;;;;;4986386;28;20019;-79
2022/09/10 13:24:36;;;;;;;2.47;1.00;;;;;;;;;;4986263;28;20030;-79
2022/09/10 13:27:03;;;;;;;4.70;1.20;;;;;;;;;;4964158;28;20204;-79
2022/09/10 13:29:32;;;;;;;2.45;1.10;;;;;;;;;;4986141;28;20026;-80
2022/09/10 13:32:20;;;;;;;2.10;1.20;;;;;;;;;;4986162;28;20275;-79
2022/09/10 13:34:55;;;;;;;3.65;1.20;;;;;;;;;;4986049;28;20046;-79
2022/09/10 13:37:58;;;;;;;4.47;1.48;;;;;;;;;;4986145;28;20030;-79
2022/09/10 13:40:33;;;;;;;4.25;1.40;;;;;;;;;;4969043;28;20047;-79
2022/09/10 13:43:28;;;;;;;5.18;1.67;;;;;;;;;;4985810;28;20030;-78
2022/09/10 13:46:01;;;;;;;3.65;1.50;;;;;;;;;;4985773;28;20049;-79
2022/09/10 13:48:33;;;;;;;3.38;1.30;;;;;;;;;;4985754;28;20046;-78
2022/09/10 13:51:08;;;;;;;5.03;1.60;;;;;;;;;;4985670;28;20333;-78
2022/09/10 13:53:38;;;;;;;3.08;1.25;;;;;;;;;;4986101;28;20219;-79
2022/09/10 13:56:10;;;;;;;4.07;1.40;;;;;;;;;;4985551;28;20033;-78
2022/09/10 13:58:38;;;;;;;5.22;1.60;;;;;;;;;;4985566;28;20018;-80
2022/09/10 14:01:04;;;;;;;4.45;1.40;;;;;;;;;;4985025;28;20321;-78
2022/09/10 14:03:29;;;;;;;3.22;1.50;;;;;;;;;;4968005;28;20034;-78
2022/09/10 14:06:03;;;;;;;3.15;1.40;;;;;;;;;;4985359;28;20030;-77
2022/09/10 14:08:28;;;;;;;3.97;1.63;;;;;;;;;;4985764;28;20050;-79
2022/09/10 14:11:11;;;;;;;3.50;1.50;;;;;;;;;;4985546;28;20222;-78
2022/09/10 14:13:48;;;;;;;4.05;1.40;;;;;;;;;;4985428;28;20038;-77
2022/09/10 14:16:33;;;;;;;6.30;1.65;;;;;;;;;;4985358;28;20019;-79
2022/09/10 14:19:01;;;;;;;5.43;1.50;;;;;;;;;;4985450;28;20031;-77
2022/09/10 14:21:27;;;;;;;6.50;1.40;;;;;;;;;;4984986;28;20026;-79
2022/09/10 14:23:54;;;;;;;4.35;1.40;;;;;;;;;;4985095;28;20333;-79
2022/09/10 14:26:23;;;;;;;2.72;1.50;;;;;;;;;;4985184;28;20045;-77
2022/09/10 14:28:57;;;;;;;6.90;1.45;;;;;;;;;;4985079;28;20073;-78
2022/09/10 14:31:26;;;;;;;5.22;1.90;;;;;;;;;;4985099;28;20018;-77
2022/09/10 14:33:52;;;;;;;7.20;1.80;;;;;;;;;;4985077;28;20022;-78
2022/09/10 14:36:27;;;;;;;3.63;1.65;;;;;;;;;;4968058;28;20103;-80
2022/09/10 14:39:01;;;;;;;4.70;2.00;;;;;;;;;;4984778;28;20019;-78
2022/09/10 14:41:32;;;;;;;5.60;1.88;;;;;;;;;;4985039;28;20334;-78
2022/09/10 14:44:22;;;;;;;7.07;1.95;;;;;;;;;;4984849;28;20098;-79
2022/09/10 14:46:56;;;;;;;8.70;2.47;;;;;;;;;;4984958;28;20027;-79
2022/09/10 14:49:30;;;;;;;6.43;3.20;;;;;;;;;;4984984;28;20022;-77
2022/09/10 14:51:57;;;;;;;11.40;3.00;;;;;;;;;;4967653;28;20094;-78
2022/09/10 14:54:24;;;;;;;9.23;2.35;;;;;;;;;;4984733;28;20102;-78
2022/09/10 14:56:49;;;;;;;5.07;1.77;;;;;;;;;;4984775;28;20066;-77
2022/09/10 14:59:29;;;;;;;3.85;1.80;;;;;;;;;;4984272;28;20026;-77
2022/09/10 15:01:55;;;;;;;5.32;1.67;;;;;;;;;;4985004;28;20078;-77
2022/09/10 15:04:24;;;;;;;4.38;1.63;;;;;;;;;;4984742;28;20033;-77